sensor_id;sensor_type;location;lat;lon;timestamp;temperature;humidity
49148;DHT22;41980;45.550;12.070;2022-07-29T00:01:17;26.30;52.80
49148;DHT22;41980;45.550;12.070;2022-07-29T00:07:19;26.20;52.90
49148;DHT22;41980;45.550;12.070;2022-07-29T00:13:21;26.30;52.80
49148;DHT22;41980;45.550;12.070;2022-07-29T00:19:23;26.30;53.00
49148;DHT22;41980;45.550;12.070;2022-07-29T00:25:25;26.20;58.00
49148;DHT22;41980;45.550;12.070;2022-07-29T00:31:27;26.30;53.40
49148;DHT22;41980;45.550;12.070;2022-07-29T00:37:29;26.40;53.30
49148;DHT22;41980;45.550;12.070;2022-07-29T00:43:31;26.40;52.80
49148;DHT22;41980;45.550;12.070;2022-07-29T00:49:34;26.30;52.40
49148;DHT22;41980;45.550;12.070;2022-07-29T00:55:36;26.20;52.00
49148;DHT22;41980;45.550;12.070;2022-07-29T01:01:38;26.20;51.80
49148;DHT22;41980;45.550;12.070;2022-07-29T01:07:41;26.10;51.80
49148;DHT22;41980;45.550;12.070;2022-07-29T01:13:44;26.00;51.90
49148;DHT22;41980;45.550;12.070;2022-07-29T01:32:10;26.10;51.90
49148;DHT22;41980;45.550;12.070;2022-07-29T01:38:19;26.10;51.70
49148;DHT22;41980;45.550;12.070;2022-07-29T01:44:32;26.00;52.90
49148;DHT22;41980;45.550;12.070;2022-07-29T01:56:48;26.00;51.80
49148;DHT22;41980;45.550;12.070;2022-07-29T02:08:56;26.00;51.50
49148;DHT22;41980;45.550;12.070;2022-07-29T02:15:02;26.00;51.90
49148;DHT22;41980;45.550;12.070;2022-07-29T02:21:07;25.80;53.70
49148;DHT22;41980;45.550;12.070;2022-07-29T02:27:12;25.50;53.60
49148;DHT22;41980;45.550;12.070;2022-07-29T02:33:16;25.40;54.00
49148;DHT22;41980;45.550;12.070;2022-07-29T02:39:21;25.30;53.80
49148;DHT22;41980;45.550;12.070;2022-07-29T02:45:24;25.20;53.80
49148;DHT22;41980;45.550;12.070;2022-07-29T02:51:32;25.20;53.40
49148;DHT22;41980;45.550;12.070;2022-07-29T02:57:41;25.00;53.60
49148;DHT22;41980;45.550;12.070;2022-07-29T03:03:45;24.90;53.70
49148;DHT22;41980;45.550;12.070;2022-07-29T03:09:49;24.80;53.90
49148;DHT22;41980;45.550;12.070;2022-07-29T03:15:52;24.80;53.90
49148;DHT22;41980;45.550;12.070;2022-07-29T03:21:57;24.70;54.50
49148;DHT22;41980;45.550;12.070;2022-07-29T03:27:59;24.60;54.80
49148;DHT22;41980;45.550;12.070;2022-07-29T03:34:01;24.50;54.80
49148;DHT22;41980;45.550;12.070;2022-07-29T03:40:07;24.50;55.10
49148;DHT22;41980;45.550;12.070;2022-07-29T03:46:11;24.40;55.70
49148;DHT22;41980;45.550;12.070;2022-07-29T03:52:16;24.30;55.70
49148;DHT22;41980;45.550;12.070;2022-07-29T03:58:18;24.30;55.50
49148;DHT22;41980;45.550;12.070;2022-07-29T04:04:22;24.30;55.60
49148;DHT22;41980;45.550;12.070;2022-07-29T04:16:26;24.20;56.20
49148;DHT22;41980;45.550;12.070;2022-07-29T04:22:28;24.20;55.80
49148;DHT22;41980;45.550;12.070;2022-07-29T04:28:30;24.10;56.20
49148;DHT22;41980;45.550;12.070;2022-07-29T04:34:32;24.10;56.60
49148;DHT22;41980;45.550;12.070;2022-07-29T04:40:34;24.00;57.00
49148;DHT22;41980;45.550;12.070;2022-07-29T04:46:36;24.10;56.90
49148;DHT22;41980;45.550;12.070;2022-07-29T04:52:38;24.20;56.80
49148;DHT22;41980;45.550;12.070;2022-07-29T04:58:40;24.50;56.40
49148;DHT22;41980;45.550;12.070;2022-07-29T05:04:42;24.90;55.70
49148;DHT22;41980;45.550;12.070;2022-07-29T05:10:44;25.30;55.30
49148;DHT22;41980;45.550;12.070;2022-07-29T05:16:46;25.90;55.00
49148;DHT22;41980;45.550;12.070;2022-07-29T05:22:50;27.70;53.60
49148;DHT22;41980;45.550;12.070;2022-07-29T05:28:52;29.80;51.50
49148;DHT22;41980;45.550;12.070;2022-07-29T05:34:55;31.50;50.00
49148;DHT22;41980;45.550;12.070;2022-07-29T05:40:58;32.80;48.70
49148;DHT22;41980;45.550;12.070;2022-07-29T05:47:00;33.70;47.70
49148;DHT22;41980;45.550;12.070;2022-07-29T05:53:02;34.40;47.20
49148;DHT22;41980;45.550;12.070;2022-07-29T05:59:05;35.10;45.20
49148;DHT22;41980;45.550;12.070;2022-07-29T06:05:07;35.80;46.10
49148;DHT22;41980;45.550;12.070;2022-07-29T06:11:09;36.30;45.30
49148;DHT22;41980;45.550;12.070;2022-07-29T06:17:11;36.90;44.80
49148;DHT22;41980;45.550;12.070;2022-07-29T06:23:13;36.90;43.20
49148;DHT22;41980;45.550;12.070;2022-07-29T06:29:15;37.20;44.00
49148;DHT22;41980;45.550;12.070;2022-07-29T06:35:17;37.90;43.60
49148;DHT22;41980;45.550;12.070;2022-07-29T06:41:19;38.20;43.10
49148;DHT22;41980;45.550;12.070;2022-07-29T06:47:21;38.90;42.30
49148;DHT22;41980;45.550;12.070;2022-07-29T06:53:23;39.40;41.60
49148;DHT22;41980;45.550;12.070;2022-07-29T06:59:25;39.60;37.60
49148;DHT22;41980;45.550;12.070;2022-07-29T07:05:27;39.70;41.10
49148;DHT22;41980;45.550;12.070;2022-07-29T07:11:29;40.00;40.80
49148;DHT22;41980;45.550;12.070;2022-07-29T07:17:31;40.20;40.40
49148;DHT22;41980;45.550;12.070;2022-07-29T07:23:33;40.40;38.40
49148;DHT22;41980;45.550;12.070;2022-07-29T07:29:35;40.30;39.20
49148;DHT22;41980;45.550;12.070;2022-07-29T07:35:38;40.80;39.60
49148;DHT22;41980;45.550;12.070;2022-07-29T07:41:40;41.00;39.10
49148;DHT22;41980;45.550;12.070;2022-07-29T07:47:42;41.30;38.40
49148;DHT22;41980;45.550;12.070;2022-07-29T07:53:44;41.90;37.90
49148;DHT22;41980;45.550;12.070;2022-07-29T07:59:46;42.20;37.20
49148;DHT22;41980;45.550;12.070;2022-07-29T08:05:48;42.10;36.30
49148;DHT22;41980;45.550;12.070;2022-07-29T08:11:52;42.20;36.00
49148;DHT22;41980;45.550;12.070;2022-07-29T08:17:54;41.90;35.90
49148;DHT22;41980;45.550;12.070;2022-07-29T08:23:56;42.30;34.70
49148;DHT22;41980;45.550;12.070;2022-07-29T08:30:02;41.50;35.00
49148;DHT22;41980;45.550;12.070;2022-07-29T08:36:05;41.90;34.90
49148;DHT22;41980;45.550;12.070;2022-07-29T08:42:08;42.30;34.60
49148;DHT22;41980;45.550;12.070;2022-07-29T08:48:12;42.50;33.90
49148;DHT22;41980;45.550;12.070;2022-07-29T08:54:17;42.50;34.10
49148;DHT22;41980;45.550;12.070;2022-07-29T09:00:21;42.50;33.80
49148;DHT22;41980;45.550;12.070;2022-07-29T09:06:24;42.60;33.50
49148;DHT22;41980;45.550;12.070;2022-07-29T09:12:30;42.30;33.10
49148;DHT22;41980;45.550;12.070;2022-07-29T09:18:37;42.50;33.20
49148;DHT22;41980;45.550;12.070;2022-07-29T09:24:43;42.90;32.70
49148;DHT22;41980;45.550;12.070;2022-07-29T09:30:50;42.70;32.50
49148;DHT22;41980;45.550;12.070;2022-07-29T09:36:54;42.70;32.40
49148;DHT22;41980;45.550;12.070;2022-07-29T09:42:56;42.30;32.10
49148;DHT22;41980;45.550;12.070;2022-07-29T09:55:10;41.10;32.20
49148;DHT22;41980;45.550;12.070;2022-07-29T10:01:12;39.80;33.10
49148;DHT22;41980;45.550;12.070;2022-07-29T10:07:14;39.00;33.30
49148;DHT22;41980;45.550;12.070;2022-07-29T10:13:18;39.40;33.10
49148;DHT22;41980;45.550;12.070;2022-07-29T10:19:20;40.10;32.20
49148;DHT22;41980;45.550;12.070;2022-07-29T10:25:23;40.20;31.90
49148;DHT22;41980;45.550;12.070;2022-07-29T10:31:31;39.90;31.10
49148;DHT22;41980;45.550;12.070;2022-07-29T10:43:48;39.80;31.40
49148;DHT22;41980;45.550;12.070;2022-07-29T10:49:55;39.40;31.50
49148;DHT22;41980;45.550;12.070;2022-07-29T10:55:59;38.90;32.90
49148;DHT22;41980;45.550;12.070;2022-07-29T11:02:01;38.00;33.10
49148;DHT22;41980;45.550;12.070;2022-07-29T11:14:11;37.20;33.20
49148;DHT22;41980;45.550;12.070;2022-07-29T11:26:21;36.60;33.50
49148;DHT22;41980;45.550;12.070;2022-07-29T11:32:25;36.40;33.50
49148;DHT22;41980;45.550;12.070;2022-07-29T11:38:37;36.10;33.60
49148;DHT22;41980;45.550;12.070;2022-07-29T11:50:59;35.70;33.80
49148;DHT22;41980;45.550;12.070;2022-07-29T11:57:01;35.50;34.00
49148;DHT22;41980;45.550;12.070;2022-07-29T12:03:06;35.30;34.20
49148;DHT22;41980;45.550;12.070;2022-07-29T12:09:09;35.30;34.20
49148;DHT22;41980;45.550;12.070;2022-07-29T12:15:16;35.40;34.20
49148;DHT22;41980;45.550;12.070;2022-07-29T12:21:21;35.30;34.20
49148;DHT22;41980;45.550;12.070;2022-07-29T12:27:23;35.30;34.20
49148;DHT22;41980;45.550;12.070;2022-07-29T12:33:27;35.30;34.20
49148;DHT22;41980;45.550;12.070;2022-07-29T12:39:30;35.30;34.30
49148;DHT22;41980;45.550;12.070;2022-07-29T12:45:33;35.20;34.20
49148;DHT22;41980;45.550;12.070;2022-07-29T12:51:38;35.10;34.40
49148;DHT22;41980;45.550;12.070;2022-07-29T12:57:44;34.90;34.40
49148;DHT22;41980;45.550;12.070;2022-07-29T13:03:53;34.90;34.60
49148;DHT22;41980;45.550;12.070;2022-07-29T13:16:07;34.90;35.00
49148;DHT22;41980;45.550;12.070;2022-07-29T13:22:11;34.90;35.30
49148;DHT22;41980;45.550;12.070;2022-07-29T13:28:13;34.80;35.60
49148;DHT22;41980;45.550;12.070;2022-07-29T13:34:15;34.70;35.70
49148;DHT22;41980;45.550;12.070;2022-07-29T13:40:18;34.60;36.00
49148;DHT22;41980;45.550;12.070;2022-07-29T13:46:20;34.50;36.50
49148;DHT22;41980;45.550;12.070;2022-07-29T13:52:22;34.40;36.60
49148;DHT22;41980;45.550;12.070;2022-07-29T13:58:24;34.30;36.90
49148;DHT22;41980;45.550;12.070;2022-07-29T14:04:26;34.30;36.90
49148;DHT22;41980;45.550;12.070;2022-07-29T14:10:29;34.30;37.00
49148;DHT22;41980;45.550;12.070;2022-07-29T14:16:31;34.40;37.00
49148;DHT22;41980;45.550;12.070;2022-07-29T14:22:34;34.40;36.90
49148;DHT22;41980;45.550;12.070;2022-07-29T14:28:35;34.50;36.90
49148;DHT22;41980;45.550;12.070;2022-07-29T14:34:38;34.50;36.90
49148;DHT22;41980;45.550;12.070;2022-07-29T14:40:41;34.60;36.90
49148;DHT22;41980;45.550;12.070;2022-07-29T14:46:43;34.50;37.10
49148;DHT22;41980;45.550;12.070;2022-07-29T14:52:45;34.50;37.40
49148;DHT22;41980;45.550;12.070;2022-07-29T14:58:47;34.30;37.40
49148;DHT22;41980;45.550;12.070;2022-07-29T15:04:49;34.30;37.40
49148;DHT22;41980;45.550;12.070;2022-07-29T15:10:51;34.20;37.50
49148;DHT22;41980;45.550;12.070;2022-07-29T15:16:55;34.20;37.50
49148;DHT22;41980;45.550;12.070;2022-07-29T15:22:57;34.00;37.50
49148;DHT22;41980;45.550;12.070;2022-07-29T15:28:59;33.90;37.60
49148;DHT22;41980;45.550;12.070;2022-07-29T15:35:02;33.80;37.60
49148;DHT22;41980;45.550;12.070;2022-07-29T15:41:05;33.70;37.60
49148;DHT22;41980;45.550;12.070;2022-07-29T15:47:07;33.70;37.50
49148;DHT22;41980;45.550;12.070;2022-07-29T15:53:09;33.50;37.60
49148;DHT22;41980;45.550;12.070;2022-07-29T15:59:11;33.20;37.60
49148;DHT22;41980;45.550;12.070;2022-07-29T16:05:13;33.10;37.60
49148;DHT22;41980;45.550;12.070;2022-07-29T16:11:15;33.00;37.60
49148;DHT22;41980;45.550;12.070;2022-07-29T16:17:18;32.90;37.70
49148;DHT22;41980;45.550;12.070;2022-07-29T16:23:20;32.90;37.80
49148;DHT22;41980;45.550;12.070;2022-07-29T16:29:24;32.80;37.90
49148;DHT22;41980;45.550;12.070;2022-07-29T16:35:26;32.70;37.90
49148;DHT22;41980;45.550;12.070;2022-07-29T16:41:28;32.50;38.00
49148;DHT22;41980;45.550;12.070;2022-07-29T16:47:30;32.40;38.00
49148;DHT22;41980;45.550;12.070;2022-07-29T16:53:33;32.30;38.10
49148;DHT22;41980;45.550;12.070;2022-07-29T16:59:35;32.10;38.30
49148;DHT22;41980;45.550;12.070;2022-07-29T17:05:38;32.10;38.40
49148;DHT22;41980;45.550;12.070;2022-07-29T17:11:41;32.00;38.70
49148;DHT22;41980;45.550;12.070;2022-07-29T17:17:44;31.90;39.00
49148;DHT22;41980;45.550;12.070;2022-07-29T17:23:48;31.80;39.40
49148;DHT22;41980;45.550;12.070;2022-07-29T17:29:52;31.60;39.70
49148;DHT22;41980;45.550;12.070;2022-07-29T17:35:55;31.50;39.90
49148;DHT22;41980;45.550;12.070;2022-07-29T17:42:02;31.40;40.10
49148;DHT22;41980;45.550;12.070;2022-07-29T17:48:05;31.20;40.40
49148;DHT22;41980;45.550;12.070;2022-07-29T17:54:06;31.00;41.60
49148;DHT22;41980;45.550;12.070;2022-07-29T18:00:09;30.30;45.10
49148;DHT22;41980;45.550;12.070;2022-07-29T18:06:11;29.50;45.90
49148;DHT22;41980;45.550;12.070;2022-07-29T18:12:13;28.90;46.40
49148;DHT22;41980;45.550;12.070;2022-07-29T18:18:15;28.50;47.20
49148;DHT22;41980;45.550;12.070;2022-07-29T18:24:18;28.00;48.20
49148;DHT22;41980;45.550;12.070;2022-07-29T18:30:20;27.60;49.00
49148;DHT22;41980;45.550;12.070;2022-07-29T18:36:22;27.30;50.80
49148;DHT22;41980;45.550;12.070;2022-07-29T18:42:25;26.90;50.90
49148;DHT22;41980;45.550;12.070;2022-07-29T18:48:27;26.60;52.20
49148;DHT22;41980;45.550;12.070;2022-07-29T18:54:29;26.20;59.90
49148;DHT22;41980;45.550;12.070;2022-07-29T19:00:32;25.80;58.20
49148;DHT22;41980;45.550;12.070;2022-07-29T19:06:34;25.50;58.40
49148;DHT22;41980;45.550;12.070;2022-07-29T19:12:36;25.50;58.90
49148;DHT22;41980;45.550;12.070;2022-07-29T19:18:38;25.40;60.50
49148;DHT22;41980;45.550;12.070;2022-07-29T19:24:40;25.20;61.40
49148;DHT22;41980;45.550;12.070;2022-07-29T19:30:42;25.00;61.10
49148;DHT22;41980;45.550;12.070;2022-07-29T19:36:44;25.00;61.30
49148;DHT22;41980;45.550;12.070;2022-07-29T19:42:47;25.10;59.90
49148;DHT22;41980;45.550;12.070;2022-07-29T19:48:52;25.20;59.00
49148;DHT22;41980;45.550;12.070;2022-07-29T19:54:54;25.30;59.30
49148;DHT22;41980;45.550;12.070;2022-07-29T20:00:55;25.40;59.40
49148;DHT22;41980;45.550;12.070;2022-07-29T20:06:57;25.30;61.80
49148;DHT22;41980;45.550;12.070;2022-07-29T20:13:01;25.20;59.40
49148;DHT22;41980;45.550;12.070;2022-07-29T20:19:03;25.10;59.70
49148;DHT22;41980;45.550;12.070;2022-07-29T20:25:06;25.10;59.50
49148;DHT22;41980;45.550;12.070;2022-07-29T20:31:10;25.20;58.50
49148;DHT22;41980;45.550;12.070;2022-07-29T20:37:12;25.40;58.00
49148;DHT22;41980;45.550;12.070;2022-07-29T20:43:16;25.40;58.40
49148;DHT22;41980;45.550;12.070;2022-07-29T20:49:18;25.40;57.40
49148;DHT22;41980;45.550;12.070;2022-07-29T20:55:20;25.50;57.40
49148;DHT22;41980;45.550;12.070;2022-07-29T21:01:22;25.40;57.50
49148;DHT22;41980;45.550;12.070;2022-07-29T21:07:24;25.40;57.20
49148;DHT22;41980;45.550;12.070;2022-07-29T21:13:26;25.40;57.10
49148;DHT22;41980;45.550;12.070;2022-07-29T21:19:29;25.40;57.30
49148;DHT22;41980;45.550;12.070;2022-07-29T21:25:31;25.30;57.30
49148;DHT22;41980;45.550;12.070;2022-07-29T21:31:35;25.30;57.80
49148;DHT22;41980;45.550;12.070;2022-07-29T21:37:38;25.30;57.30
49148;DHT22;41980;45.550;12.070;2022-07-29T21:43:43;25.20;57.20
49148;DHT22;41980;45.550;12.070;2022-07-29T21:49:45;25.20;57.00
49148;DHT22;41980;45.550;12.070;2022-07-29T21:55:47;25.20;56.80
49148;DHT22;41980;45.550;12.070;2022-07-29T22:01:51;25.20;56.50
49148;DHT22;41980;45.550;12.070;2022-07-29T22:07:55;25.30;56.40
49148;DHT22;41980;45.550;12.070;2022-07-29T22:13:58;25.30;56.40
49148;DHT22;41980;45.550;12.070;2022-07-29T22:20:00;25.20;56.40
49148;DHT22;41980;45.550;12.070;2022-07-29T22:26:02;25.20;56.30
49148;DHT22;41980;45.550;12.070;2022-07-29T22:38:07;25.10;56.40
49148;DHT22;41980;45.550;12.070;2022-07-29T22:44:09;25.10;56.60
49148;DHT22;41980;45.550;12.070;2022-07-29T22:50:11;25.10;56.50
49148;DHT22;41980;45.550;12.070;2022-07-29T22:56:17;25.10;56.20
49148;DHT22;41980;45.550;12.070;2022-07-29T23:02:22;25.20;56.40
49148;DHT22;41980;45.550;12.070;2022-07-29T23:08:24;25.20;56.70
49148;DHT22;41980;45.550;12.070;2022-07-29T23:14:26;25.10;56.60
49148;DHT22;41980;45.550;12.070;2022-07-29T23:20:28;25.10;57.30
49148;DHT22;41980;45.550;12.070;2022-07-29T23:26:30;25.10;57.10
49148;DHT22;41980;45.550;12.070;2022-07-29T23:32:32;25.00;57.20
49148;DHT22;41980;45.550;12.070;2022-07-29T23:38:37;25.00;57.10
49148;DHT22;41980;45.550;12.070;2022-07-29T23:44:40;25.00;56.90
49148;DHT22;41980;45.550;12.070;2022-07-29T23:50:42;25.00;57.00
49148;DHT22;41980;45.550;12.070;2022-07-29T23:56:44;24.90;57.10
